Time;durP1;ratioP1;P1;durP2;ratioP2;P2;SDS_P1;SDS_P2;PMS_P1;PMS_P2;Temp;Humidity;BMP_temperature;BMP_pressure;BME280_temperature;BME280_humidity;BME280_pressure;Samples;Min_cycle;Max_cycle;Signal;HPM_P1;HPM_P2
2021/10/10 00:00:20;;;;;;;0.80;0.80;;;7.50;99.90;;;;;;5064827;28;20446;-78
2021/10/10 00:02:47;;;;;;;1.47;1.47;;;7.50;99.90;;;;;;5060309;28;20476;-79
2021/10/10 00:05:15;;;;;;;0.70;0.60;;;7.50;99.90;;;;;;5071268;28;20448;-78
2021/10/10 00:07:42;;;;;;;0.50;0.50;;;7.50;99.90;;;;;;5055729;28;20449;-78
2021/10/10 00:10:10;;;;;;;2.50;1.13;;;7.60;99.90;;;;;;5069837;28;20441;-78
2021/10/10 00:12:37;;;;;;;0.40;0.40;;;7.50;99.90;;;;;;5057240;28;20442;-79
2021/10/10 00:15:05;;;;;;;0.93;0.93;;;7.50;99.90;;;;;;5064648;28;20864;-78
2021/10/10 00:17:31;;;;;;;0.73;0.50;;;7.50;99.90;;;;;;5063068;28;20449;-78
2021/10/10 00:19:58;;;;;;;0.47;0.40;;;7.50;99.90;;;;;;5071013;28;20456;-78
2021/10/10 00:22:27;;;;;;;0.60;0.60;;;7.50;99.90;;;;;;5060448;28;20478;-79
2021/10/10 00:24:53;;;;;;;1.57;0.50;;;7.50;99.90;;;;;;5056419;28;20453;-78
2021/10/10 00:27:21;;;;;;;0.30;0.30;;;7.40;99.90;;;;;;5055050;28;20450;-78
2021/10/10 00:29:49;;;;;;;1.13;0.50;;;7.40;99.90;;;;;;5067222;28;20539;-78
2021/10/10 00:32:15;;;;;;;0.67;0.60;;;7.40;99.90;;;;;;5063377;28;20506;-78
2021/10/10 00:34:42;;;;;;;1.00;0.60;;;7.40;99.90;;;;;;5067812;28;20441;-78
2021/10/10 00:37:09;;;;;;;0.50;0.40;;;7.40;99.90;;;;;;5065536;28;20449;-78
2021/10/10 00:39:37;;;;;;;1.10;0.93;;;7.40;99.90;;;;;;5070456;28;20952;-78
2021/10/10 00:42:06;;;;;;;1.43;1.43;;;7.40;99.90;;;;;;5066181;28;20841;-82
2021/10/10 00:44:33;;;;;;;0.60;0.57;;;7.40;99.90;;;;;;5064332;28;20445;-82
2021/10/10 00:47:00;;;;;;;0.40;0.40;;;7.30;99.90;;;;;;5066005;28;20444;-81
2021/10/10 00:49:27;;;;;;;0.97;0.60;;;7.30;99.90;;;;;;5066041;28;20445;-81
2021/10/10 00:51:54;;;;;;;0.53;0.53;;;7.40;99.90;;;;;;5054423;28;20477;-81
2021/10/10 00:54:22;;;;;;;0.40;0.40;;;7.30;99.90;;;;;;5054460;28;20456;-79
2021/10/10 00:56:51;;;;;;;0.73;0.73;;;7.30;99.90;;;;;;5053947;28;20441;-78
2021/10/10 00:59:23;;;;;;;0.60;0.60;;;7.30;99.90;;;;;;5053936;28;20792;-78
2021/10/10 01:01:50;;;;;;;0.60;0.53;;;7.20;99.90;;;;;;5054036;28;20470;-77
2021/10/10 01:04:17;;;;;;;0.53;0.50;;;7.20;99.90;;;;;;5054106;28;20480;-77
2021/10/10 01:06:44;;;;;;;1.13;0.60;;;7.20;99.90;;;;;;5055021;28;20450;-77
2021/10/10 01:09:13;;;;;;;0.80;0.63;;;7.20;99.90;;;;;;5054872;28;20963;-77
2021/10/10 01:11:41;;;;;;;1.90;0.40;;;7.30;99.90;;;;;;5054027;28;20469;-78
2021/10/10 01:14:10;;;;;;;0.43;0.43;;;7.20;99.90;;;;;;5053036;28;20449;-77
2021/10/10 01:16:36;;;;;;;0.53;0.43;;;7.20;99.90;;;;;;5054077;28;20449;-77
2021/10/10 01:19:04;;;;;;;1.43;1.30;;;7.10;99.90;;;;;;5056741;28;20446;-77
2021/10/10 01:21:32;;;;;;;0.40;0.40;;;7.10;99.90;;;;;;5054554;28;20492;-77
2021/10/10 01:23:59;;;;;;;3.20;0.77;;;7.10;99.90;;;;;;5068341;28;20461;-77
2021/10/10 01:26:25;;;;;;;1.13;0.70;;;7.10;99.90;;;;;;5067820;28;20437;-77
2021/10/10 01:28:52;;;;;;;0.50;0.50;;;7.00;99.90;;;;;;5070434;28;20828;-77
2021/10/10 01:31:19;;;;;;;1.77;0.40;;;7.00;99.90;;;;;;5068557;28;20474;-77
2021/10/10 01:33:47;;;;;;;0.40;0.40;;;7.00;99.90;;;;;;5055922;28;20896;-77
2021/10/10 01:36:14;;;;;;;0.40;0.40;;;7.00;99.90;;;;;;5067630;28;20663;-77
2021/10/10 01:38:43;;;;;;;1.17;0.53;;;7.00;99.90;;;;;;5061217;28;20465;-77
2021/10/10 01:41:10;;;;;;;0.70;0.40;;;7.00;99.90;;;;;;5066310;28;20473;-77
2021/10/10 01:43:38;;;;;;;0.40;0.40;;;7.00;99.90;;;;;;5069746;28;20995;-77
2021/10/10 01:46:05;;;;;;;3.73;0.80;;;6.90;99.90;;;;;;5070189;28;20448;-77
2021/10/10 01:48:33;;;;;;;0.50;0.40;;;6.90;99.90;;;;;;5064882;28;21843;-77
2021/10/10 01:51:00;;;;;;;2.20;2.10;;;6.90;99.90;;;;;;5064304;28;20849;-77
2021/10/10 01:53:27;;;;;;;0.40;0.40;;;6.90;99.90;;;;;;5062757;28;20937;-77
2021/10/10 01:55:55;;;;;;;0.87;0.60;;;6.90;99.90;;;;;;5074438;28;20456;-77
2021/10/10 01:58:22;;;;;;;0.53;0.47;;;6.80;99.90;;;;;;5066647;28;20457;-77
2021/10/10 02:00:49;;;;;;;0.60;0.60;;;6.80;99.90;;;;;;5061594;28;20457;-77
2021/10/10 02:03:15;;;;;;;1.53;0.97;;;6.80;99.90;;;;;;5056214;28;20977;-77
2021/10/10 02:05:42;;;;;;;0.57;0.57;;;6.80;99.90;;;;;;5065181;28;20445;-77
2021/10/10 02:08:09;;;;;;;0.43;0.43;;;6.70;99.90;;;;;;5066576;28;20445;-77
2021/10/10 02:10:35;;;;;;;0.30;0.30;;;6.60;99.90;;;;;;5066070;28;20469;-77
2021/10/10 02:13:03;;;;;;;0.40;0.40;;;6.60;99.90;;;;;;5072843;28;20452;-77
2021/10/10 02:15:30;;;;;;;0.30;0.30;;;6.60;99.90;;;;;;5070421;28;20450;-77
2021/10/10 02:17:57;;;;;;;0.57;0.40;;;6.60;99.90;;;;;;5061325;28;20957;-77
2021/10/10 02:20:24;;;;;;;0.30;0.30;;;6.60;99.90;;;;;;5053851;28;20473;-77
2021/10/10 02:22:51;;;;;;;0.97;0.40;;;6.50;99.90;;;;;;5055044;28;20482;-77
2021/10/10 02:25:17;;;;;;;1.00;1.00;;;6.50;99.90;;;;;;5072639;28;20458;-77
2021/10/10 02:27:45;;;;;;;0.30;0.30;;;6.40;99.90;;;;;;5054035;28;20465;-76
2021/10/10 02:30:13;;;;;;;0.50;0.40;;;6.40;99.90;;;;;;5053997;28;20446;-77
2021/10/10 02:32:40;;;;;;;2.80;2.60;;;6.40;99.90;;;;;;5062059;28;20958;-76
2021/10/10 02:35:08;;;;;;;0.73;0.73;;;6.40;99.90;;;;;;5073076;28;20445;-77
2021/10/10 02:37:35;;;;;;;5.20;1.07;;;6.30;99.90;;;;;;5062722;28;20441;-77
2021/10/10 02:40:02;;;;;;;0.70;0.70;;;6.30;99.90;;;;;;5059039;28;20450;-77
2021/10/10 02:42:28;;;;;;;1.00;1.00;;;6.30;99.90;;;;;;5061551;28;20959;-77
2021/10/10 02:44:55;;;;;;;0.57;0.57;;;6.30;99.90;;;;;;5074934;28;20836;-77
2021/10/10 02:47:23;;;;;;;0.40;0.40;;;6.20;99.90;;;;;;5061417;28;20454;-77
2021/10/10 02:49:50;;;;;;;0.90;0.80;;;6.20;99.90;;;;;;5065410;28;20441;-77
2021/10/10 02:52:17;;;;;;;1.30;1.20;;;6.10;99.90;;;;;;5062455;28;20508;-77
2021/10/10 02:54:44;;;;;;;0.50;0.50;;;6.10;99.90;;;;;;5067404;28;20449;-77
2021/10/10 02:57:11;;;;;;;0.80;0.80;;;6.10;99.90;;;;;;5070660;28;20456;-76
2021/10/10 02:59:38;;;;;;;1.03;0.50;;;6.10;99.90;;;;;;5063983;28;20449;-76
2021/10/10 03:02:05;;;;;;;0.40;0.40;;;6.20;99.90;;;;;;5057540;28;20453;-77
2021/10/10 03:04:33;;;;;;;3.27;0.87;;;6.10;99.90;;;;;;5056326;28;20482;-77
2021/10/10 03:06:59;;;;;;;0.50;0.50;;;6.10;99.90;;;;;;5064406;28;20467;-77
2021/10/10 03:09:26;;;;;;;1.20;0.50;;;6.10;99.90;;;;;;5071062;28;20442;-77
2021/10/10 03:11:53;;;;;;;0.80;0.47;;;6.00;99.90;;;;;;5070165;28;20496;-77
2021/10/10 03:14:20;;;;;;;0.50;0.50;;;6.00;99.90;;;;;;5066035;28;20516;-76
2021/10/10 03:16:46;;;;;;;0.70;0.70;;;6.00;99.90;;;;;;5066502;28;20445;-77
2021/10/10 03:19:13;;;;;;;0.63;0.63;;;5.90;99.90;;;;;;5069376;28;20445;-77
2021/10/10 03:21:41;;;;;;;0.93;0.70;;;5.90;99.90;;;;;;5068255;28;20488;-77
2021/10/10 03:24:08;;;;;;;1.13;0.60;;;5.80;99.90;;;;;;5073629;28;21014;-77
2021/10/10 03:26:35;;;;;;;0.40;0.40;;;5.80;99.90;;;;;;5076320;28;20459;-77
2021/10/10 03:29:02;;;;;;;0.63;0.43;;;5.90;99.90;;;;;;5067914;28;20449;-77
2021/10/10 03:31:30;;;;;;;0.40;0.40;;;5.90;99.90;;;;;;5066711;28;20814;-77
2021/10/10 03:33:56;;;;;;;0.40;0.30;;;5.90;99.90;;;;;;5065152;28;20442;-77
2021/10/10 03:36:23;;;;;;;0.83;0.40;;;5.90;99.90;;;;;;5059173;28;20450;-76
2021/10/10 03:38:51;;;;;;;1.00;0.40;;;6.00;99.90;;;;;;5062343;28;20457;-77
2021/10/10 03:41:18;;;;;;;0.63;0.63;;;6.00;99.90;;;;;;5061374;28;20979;-77
2021/10/10 03:43:45;;;;;;;1.00;0.60;;;6.00;99.90;;;;;;5058350;28;20565;-77
2021/10/10 03:46:11;;;;;;;0.50;0.50;;;6.00;99.90;;;;;;5070963;28;20455;-77
2021/10/10 03:48:38;;;;;;;1.40;1.30;;;6.00;99.90;;;;;;5063661;28;20967;-77
2021/10/10 03:51:05;;;;;;;0.67;0.67;;;6.00;99.90;;;;;;5073108;28;20468;-77
2021/10/10 03:53:40;;;;;;;3.23;0.50;;;6.00;99.90;;;;;;5057288;28;20447;-77
2021/10/10 03:56:07;;;;;;;0.40;0.40;;;6.00;99.90;;;;;;5057922;28;20481;-77
2021/10/10 03:58:38;;;;;;;2.03;0.47;;;5.90;99.90;;;;;;5057111;28;20446;-77
2021/10/10 04:01:04;;;;;;;0.80;0.80;;;6.00;99.90;;;;;;5057505;28;20474;-77
2021/10/10 04:03:31;;;;;;;0.87;0.60;;;6.00;99.90;;;;;;5057187;28;20481;-76
2021/10/10 04:05:58;;;;;;;5.63;0.83;;;6.00;99.90;;;;;;5056221;28;22092;-76
2021/10/10 04:08:25;;;;;;;1.67;1.23;;;5.90;99.90;;;;;;5059293;28;20454;-77
2021/10/10 04:10:51;;;;;;;0.40;0.40;;;5.80;99.90;;;;;;5067219;28;20477;-77
2021/10/10 04:13:19;;;;;;;1.90;1.37;;;5.80;99.90;;;;;;5069332;28;20448;-77
2021/10/10 04:15:46;;;;;;;0.60;0.60;;;5.80;99.90;;;;;;5065717;28;20449;-77
2021/10/10 04:18:13;;;;;;;0.40;0.40;;;5.80;99.90;;;;;;5065440;28;20449;-77
2021/10/10 04:20:39;;;;;;;0.40;0.40;;;5.80;99.90;;;;;;5056689;28;20977;-77
2021/10/10 04:23:06;;;;;;;0.30;0.30;;;5.80;99.90;;;;;;5067307;28;20485;-77
2021/10/10 04:25:33;;;;;;;0.87;0.87;;;5.80;99.90;;;;;;5068618;28;20441;-77
2021/10/10 04:28:00;;;;;;;0.43;0.43;;;5.80;99.90;;;;;;5056196;28;20967;-76
2021/10/10 04:30:28;;;;;;;2.20;1.27;;;5.80;99.90;;;;;;5058735;28;20474;-77
2021/10/10 04:32:55;;;;;;;0.67;0.57;;;5.80;99.90;;;;;;5066198;28;20525;-77
2021/10/10 04:35:21;;;;;;;0.60;0.60;;;5.80;99.90;;;;;;5074298;28;20433;-77
2021/10/10 04:37:48;;;;;;;0.40;0.40;;;5.70;99.90;;;;;;5073063;28;20444;-77
2021/10/10 04:40:15;;;;;;;0.30;0.30;;;5.70;99.90;;;;;;5054511;28;20438;-77
2021/10/10 04:42:41;;;;;;;0.40;0.40;;;5.70;99.90;;;;;;5055702;28;20460;-77
2021/10/10 04:45:09;;;;;;;0.40;0.30;;;5.80;99.90;;;;;;5055501;28;21009;-77
2021/10/10 04:47:37;;;;;;;1.83;0.50;;;5.80;99.90;;;;;;5056202;28;20457;-77
2021/10/10 04:50:05;;;;;;;0.93;0.47;;;5.80;99.90;;;;;;5055873;28;20448;-77
2021/10/10 04:52:31;;;;;;;0.40;0.40;;;5.70;99.90;;;;;;5055348;28;20965;-77
2021/10/10 04:54:58;;;;;;;0.30;0.30;;;5.70;99.90;;;;;;5055250;28;20449;-76
2021/10/10 04:57:25;;;;;;;0.30;0.30;;;5.70;99.90;;;;;;5055670;28;20457;-77
2021/10/10 04:59:52;;;;;;;0.30;0.30;;;5.70;99.90;;;;;;5059466;28;20810;-77
2021/10/10 05:02:19;;;;;;;0.40;0.30;;;5.60;99.90;;;;;;5056960;28;20472;-77
2021/10/10 05:04:47;;;;;;;6.07;3.13;;;5.60;99.90;;;;;;5070555;28;20482;-77
2021/10/10 05:07:14;;;;;;;0.60;0.50;;;5.50;99.90;;;;;;5065853;28;20448;-77
2021/10/10 05:09:41;;;;;;;3.40;0.70;;;5.40;99.90;;;;;;5073120;28;20453;-77
2021/10/10 05:12:07;;;;;;;0.83;0.50;;;5.40;99.90;;;;;;5067408;28;20469;-76
2021/10/10 05:14:34;;;;;;;0.50;0.50;;;5.40;99.90;;;;;;5075007;28;20472;-77
2021/10/10 05:17:01;;;;;;;0.73;0.73;;;5.30;99.90;;;;;;5068177;28;20441;-77
2021/10/10 05:19:28;;;;;;;0.50;0.40;;;5.30;99.90;;;;;;5064319;28;20460;-77
2021/10/10 05:21:56;;;;;;;0.30;0.30;;;5.20;99.90;;;;;;5063579;28;20824;-77
2021/10/10 05:24:23;;;;;;;0.50;0.50;;;5.20;99.90;;;;;;5063948;28;21018;-77
2021/10/10 05:26:50;;;;;;;1.03;0.80;;;5.20;99.90;;;;;;5068242;28;20947;-76
2021/10/10 05:29:16;;;;;;;1.07;0.70;;;5.20;99.90;;;;;;5071583;28;20811;-77
2021/10/10 05:31:43;;;;;;;0.90;0.90;;;5.20;99.90;;;;;;5062476;28;20473;-77
2021/10/10 05:34:10;;;;;;;0.90;0.60;;;5.20;99.90;;;;;;5058163;28;20450;-77
2021/10/10 05:36:37;;;;;;;0.40;0.40;;;5.20;99.90;;;;;;5063875;28;20516;-76
2021/10/10 05:39:05;;;;;;;0.40;0.40;;;5.20;99.90;;;;;;5062326;28;20460;-78
2021/10/10 05:41:32;;;;;;;1.43;0.47;;;5.10;99.90;;;;;;5062331;28;20891;-77
2021/10/10 05:43:58;;;;;;;0.90;0.50;;;5.10;99.90;;;;;;5059833;28;20474;-77
2021/10/10 05:46:25;;;;;;;0.50;0.50;;;5.00;99.90;;;;;;5058021;28;20453;-77
2021/10/10 05:48:52;;;;;;;0.30;0.30;;;5.00;99.90;;;;;;5071714;28;20437;-77
2021/10/10 05:51:19;;;;;;;0.53;0.53;;;5.00;99.90;;;;;;5074336;28;20469;-78
2021/10/10 05:53:45;;;;;;;0.30;0.30;;;5.00;99.90;;;;;;5073202;28;20445;-79
2021/10/10 05:56:16;;;;;;;0.30;0.30;;;5.00;99.90;;;;;;5065515;28;20452;-78
2021/10/10 05:58:44;;;;;;;0.50;0.50;;;5.10;99.90;;;;;;5061492;28;20537;-78
2021/10/10 06:01:11;;;;;;;5.60;1.03;;;5.10;99.90;;;;;;5067024;28;20485;-78
2021/10/10 06:03:37;;;;;;;1.17;0.40;;;5.20;99.90;;;;;;5055822;28;20461;-79
2021/10/10 06:06:04;;;;;;;0.33;0.33;;;5.20;99.90;;;;;;5063537;28;20867;-78
2021/10/10 06:08:31;;;;;;;0.30;0.30;;;5.30;99.90;;;;;;5061448;28;20453;-78
2021/10/10 06:10:58;;;;;;;2.10;1.03;;;5.40;99.90;;;;;;5074863;28;20465;-78
2021/10/10 06:13:26;;;;;;;0.30;0.30;;;5.30;99.90;;;;;;5060675;28;20441;-78
2021/10/10 06:15:54;;;;;;;0.60;0.50;;;5.30;99.90;;;;;;5058500;28;20445;-78
2021/10/10 06:18:22;;;;;;;0.43;0.43;;;5.40;99.90;;;;;;5065170;28;20964;-78
2021/10/10 06:20:48;;;;;;;0.93;0.93;;;5.40;99.90;;;;;;5069688;28;20854;-78
2021/10/10 06:23:15;;;;;;;0.40;0.40;;;5.50;99.90;;;;;;5060929;28;20469;-78
2021/10/10 06:25:42;;;;;;;1.10;0.70;;;5.50;99.90;;;;;;5066253;28;20482;-78
2021/10/10 06:28:09;;;;;;;0.40;0.33;;;5.50;99.90;;;;;;5073896;28;20449;-78
2021/10/10 06:30:37;;;;;;;0.87;0.87;;;5.60;99.90;;;;;;5065325;28;20477;-78
2021/10/10 06:33:04;;;;;;;0.60;0.60;;;5.70;99.90;;;;;;5058493;28;20441;-78
2021/10/10 06:35:30;;;;;;;0.70;0.50;;;5.70;99.90;;;;;;5056625;28;20445;-78
2021/10/10 06:37:57;;;;;;;1.57;1.47;;;5.80;99.90;;;;;;5065019;28;20452;-78
2021/10/10 06:40:24;;;;;;;0.30;0.20;;;5.80;99.90;;;;;;5073927;28;20473;-78
2021/10/10 06:42:51;;;;;;;1.13;1.13;;;5.80;99.90;;;;;;5069060;28;20956;-78
2021/10/10 06:45:18;;;;;;;0.30;0.30;;;5.90;99.90;;;;;;5066580;28;20471;-78
2021/10/10 06:47:46;;;;;;;0.30;0.30;;;5.90;99.90;;;;;;5067609;28;20453;-78
2021/10/10 06:50:12;;;;;;;1.40;1.30;;;6.00;99.90;;;;;;5072077;28;20453;-78
2021/10/10 06:52:39;;;;;;;0.83;0.40;;;6.00;99.90;;;;;;5058304;28;20959;-78
2021/10/10 06:55:07;;;;;;;0.53;0.40;;;6.00;99.90;;;;;;5063773;28;20434;-78
2021/10/10 06:57:34;;;;;;;0.60;0.40;;;6.00;99.90;;;;;;5058432;28;20452;-78
2021/10/10 07:00:01;;;;;;;0.40;0.30;;;6.00;99.90;;;;;;5073781;28;20448;-78
2021/10/10 07:02:28;;;;;;;0.90;0.90;;;6.00;99.90;;;;;;5068531;28;20518;-78
2021/10/10 07:04:56;;;;;;;1.03;0.37;;;6.00;99.90;;;;;;5065185;28;20878;-78
2021/10/10 07:07:24;;;;;;;0.50;0.40;;;6.10;99.90;;;;;;5076034;28;20959;-78
2021/10/10 07:09:51;;;;;;;0.87;0.87;;;6.10;99.90;;;;;;5073430;28;20448;-78
2021/10/10 07:12:18;;;;;;;0.97;0.70;;;6.10;99.90;;;;;;5077095;28;20474;-78
2021/10/10 07:14:46;;;;;;;0.47;0.47;;;6.10;99.90;;;;;;5069233;28;20818;-78
2021/10/10 07:17:14;;;;;;;0.50;0.50;;;6.10;99.90;;;;;;5067440;28;20855;-77
2021/10/10 07:19:45;;;;;;;2.00;0.80;;;6.20;99.90;;;;;;5057426;28;20519;-78
2021/10/10 07:22:26;;;;;;;0.50;0.50;;;6.20;99.90;;;;;;5070249;28;20492;-78
2021/10/10 07:25:04;;;;;;;0.60;0.60;;;6.30;99.90;;;;;;5061518;28;20889;-78
2021/10/10 07:27:32;;;;;;;1.07;1.07;;;6.30;99.90;;;;;;5070223;28;20931;-78
2021/10/10 07:29:59;;;;;;;0.97;0.60;;;6.40;99.90;;;;;;5058203;28;20442;-78
2021/10/10 07:32:25;;;;;;;1.90;1.57;;;6.40;99.90;;;;;;5068081;28;20472;-78
2021/10/10 07:34:52;;;;;;;0.47;0.47;;;6.40;99.90;;;;;;5068469;28;20440;-78
2021/10/10 07:37:20;;;;;;;0.80;0.60;;;6.50;99.90;;;;;;5062386;28;20952;-78
2021/10/10 07:39:47;;;;;;;1.00;1.00;;;6.50;99.90;;;;;;5075668;28;20449;-78
2021/10/10 07:42:14;;;;;;;0.40;0.40;;;6.60;99.90;;;;;;5066858;28;20996;-78
2021/10/10 07:44:44;;;;;;;0.40;0.40;;;6.60;99.90;;;;;;5056669;28;20503;-78
2021/10/10 07:47:18;;;;;;;0.90;0.40;;;6.70;99.90;;;;;;5056054;28;20945;-78
2021/10/10 07:49:48;;;;;;;0.87;0.87;;;6.80;99.90;;;;;;5065785;28;20473;-78
2021/10/10 07:52:15;;;;;;;0.80;0.77;;;6.90;99.90;;;;;;5069981;28;20839;-78
2021/10/10 07:54:44;;;;;;;0.90;0.60;;;7.00;99.90;;;;;;5055267;28;20453;-78
2021/10/10 07:57:11;;;;;;;0.93;0.90;;;7.00;99.90;;;;;;5055350;28;20449;-78
2021/10/10 07:59:37;;;;;;;0.57;0.47;;;7.10;99.90;;;;;;5055713;28;20450;-78
2021/10/10 08:02:05;;;;;;;0.63;0.63;;;7.30;99.90;;;;;;5055179;28;20476;-79
2021/10/10 08:04:31;;;;;;;0.70;0.60;;;7.50;99.90;;;;;;5055468;28;20481;-79
2021/10/10 08:06:58;;;;;;;0.70;0.50;;;7.70;99.90;;;;;;5073090;28;20457;-79
2021/10/10 08:09:25;;;;;;;1.50;1.40;;;8.00;99.90;;;;;;5065775;28;20454;-79
2021/10/10 08:11:53;;;;;;;0.73;0.73;;;8.10;99.90;;;;;;5055516;28;20480;-79
2021/10/10 08:14:20;;;;;;;0.80;0.40;;;8.30;99.90;;;;;;5055044;28;20457;-78
2021/10/10 08:16:47;;;;;;;1.10;0.60;;;8.50;99.90;;;;;;5070256;28;20445;-79
2021/10/10 08:19:15;;;;;;;1.07;0.87;;;8.70;99.90;;;;;;5068487;28;20949;-79
2021/10/10 08:21:41;;;;;;;1.90;1.10;;;9.00;99.90;;;;;;5054854;28;20489;-81
2021/10/10 08:24:08;;;;;;;1.53;1.43;;;9.30;99.90;;;;;;5055713;28;20446;-79
2021/10/10 08:26:35;;;;;;;1.70;1.60;;;9.50;99.90;;;;;;5062964;28;20477;-80
2021/10/10 08:29:03;;;;;;;0.80;0.80;;;9.60;99.90;;;;;;5055076;28;20434;-80
2021/10/10 08:31:30;;;;;;;1.10;0.70;;;9.80;99.90;;;;;;5054455;28;20465;-78
2021/10/10 08:33:57;;;;;;;5.27;2.47;;;10.00;99.90;;;;;;5053726;28;20460;-79
2021/10/10 08:36:24;;;;;;;1.50;1.40;;;10.20;99.90;;;;;;5057168;28;20438;-79
2021/10/10 08:38:50;;;;;;;2.70;1.70;;;10.20;99.90;;;;;;5067509;28;20452;-79
2021/10/10 08:41:24;;;;;;;1.87;0.80;;;10.40;99.90;;;;;;5057962;28;20477;-80
2021/10/10 08:43:53;;;;;;;2.50;1.70;;;10.70;99.90;;;;;;5054932;28;20438;-79
2021/10/10 08:46:24;;;;;;;2.27;0.90;;;10.80;99.90;;;;;;5054682;28;20481;-81
2021/10/10 08:48:51;;;;;;;1.20;1.10;;;11.20;99.90;;;;;;5054789;28;20446;-82
2021/10/10 08:51:19;;;;;;;1.17;1.03;;;11.50;99.90;;;;;;5054447;28;20461;-81
2021/10/10 08:53:46;;;;;;;0.70;0.63;;;11.80;99.90;;;;;;5056262;28;20456;-80
2021/10/10 08:56:14;;;;;;;1.27;1.03;;;12.10;99.90;;;;;;5067323;28;20445;-82
2021/10/10 08:58:44;;;;;;;3.17;1.40;;;12.80;99.90;;;;;;5054207;28;20986;-80
2021/10/10 09:01:16;;;;;;;1.03;0.93;;;13.70;99.90;;;;;;5059648;28;20484;-80
2021/10/10 09:03:49;;;;;;;1.90;1.80;;;14.40;99.90;;;;;;5055096;28;20508;-80
2021/10/10 09:06:16;;;;;;;2.13;1.30;;;14.90;99.90;;;;;;5069600;28;20465;-80
2021/10/10 09:08:43;;;;;;;5.73;2.00;;;15.10;99.90;;;;;;5055371;28;20450;-80
2021/10/10 09:11:11;;;;;;;2.73;2.00;;;15.20;99.90;;;;;;5072502;28;20498;-80
2021/10/10 09:13:39;;;;;;;2.93;1.57;;;15.60;99.90;;;;;;5061875;28;20449;-80
2021/10/10 09:16:08;;;;;;;3.07;1.90;;;15.60;99.90;;;;;;5059043;28;20446;-80
2021/10/10 09:18:38;;;;;;;2.90;1.43;;;15.90;99.90;;;;;;5056245;28;20450;-80
2021/10/10 09:21:18;;;;;;;5.40;2.03;;;16.10;99.90;;;;;;5054307;28;20473;-80
2021/10/10 09:23:50;;;;;;;2.23;0.90;;;16.00;99.90;;;;;;5068648;28;20443;-80
2021/10/10 09:26:18;;;;;;;2.73;1.27;;;15.80;99.90;;;;;;5072564;28;20476;-81
2021/10/10 09:28:45;;;;;;;2.70;1.33;;;15.60;99.90;;;;;;5064824;28;20502;-80
2021/10/10 09:31:13;;;;;;;5.70;1.87;;;15.50;99.90;;;;;;5056220;28;20466;-80
2021/10/10 09:33:43;;;;;;;2.17;1.97;;;15.40;99.90;;;;;;5057266;28;20437;-80
2021/10/10 09:36:16;;;;;;;1.73;1.53;;;15.40;99.90;;;;;;5055720;28;20543;-80
2021/10/10 09:38:52;;;;;;;2.47;1.30;;;15.80;99.90;;;;;;5062863;28;20437;-80
2021/10/10 09:41:29;;;;;;;3.57;1.83;;;16.10;99.90;;;;;;5071556;28;20469;-80
2021/10/10 09:44:03;;;;;;;2.17;1.73;;;16.30;98.90;;;;;;5073421;28;20441;-80
2021/10/10 09:46:30;;;;;;;1.53;1.47;;;16.50;99.80;;;;;;5073663;28;20555;-80
2021/10/10 09:48:58;;;;;;;1.83;1.70;;;16.60;97.10;;;;;;5073338;28;20982;-82
2021/10/10 09:51:32;;;;;;;1.77;1.67;;;16.80;96.10;;;;;;5073288;28;20465;-80
2021/10/10 09:54:05;;;;;;;3.23;1.87;;;17.20;92.70;;;;;;5073303;28;20976;-80
2021/10/10 09:56:32;;;;;;;2.40;1.73;;;17.30;91.30;;;;;;5073595;28;20471;-80
2021/10/10 09:58:59;;;;;;;2.47;1.10;;;17.40;91.80;;;;;;5073547;28;20455;-80
2021/10/10 10:01:28;;;;;;;4.77;1.80;;;17.60;89.90;;;;;;5073461;28;20468;-80
2021/10/10 10:04:02;;;;;;;3.53;2.70;;;17.90;88.60;;;;;;5073338;28;20787;-80
2021/10/10 10:06:31;;;;;;;4.00;1.70;;;18.20;86.90;;;;;;5073361;28;20480;-80
2021/10/10 10:09:02;;;;;;;4.23;2.23;;;18.50;88.60;;;;;;5073368;28;20443;-80
2021/10/10 10:11:32;;;;;;;4.27;2.40;;;19.00;86.80;;;;;;5073401;28;20473;-79
2021/10/10 10:14:02;;;;;;;2.17;1.83;;;19.20;84.30;;;;;;5073117;28;20935;-80
2021/10/10 10:16:29;;;;;;;3.00;2.10;;;19.30;80.90;;;;;;5073193;28;20480;-80
2021/10/10 10:18:58;;;;;;;3.43;2.23;;;19.10;80.80;;;;;;5073145;28;20452;-80
2021/10/10 10:21:26;;;;;;;4.57;3.47;;;19.00;80.60;;;;;;5072700;28;20456;-80
2021/10/10 10:23:58;;;;;;;3.63;2.17;;;19.00;78.70;;;;;;5073717;28;20452;-80
2021/10/10 10:26:25;;;;;;;4.30;2.27;;;19.10;78.50;;;;;;5072915;28;21003;-80
2021/10/10 10:28:54;;;;;;;2.40;1.53;;;19.40;77.50;;;;;;5073251;28;20441;-80
2021/10/10 10:31:22;;;;;;;1.97;1.87;;;20.00;74.80;;;;;;5072831;28;20991;-80
2021/10/10 10:33:50;;;;;;;2.87;2.07;;;21.00;70.80;;;;;;5072927;28;20444;-80
2021/10/10 10:36:36;;;;;;;5.17;1.40;;;21.50;68.00;;;;;;5072915;28;20444;-80
2021/10/10 10:39:03;;;;;;;3.03;2.43;;;21.80;65.50;;;;;;5072515;28;20467;-79
2021/10/10 10:41:49;;;;;;;3.37;2.77;;;21.80;66.80;;;;;;5073056;28;20464;-80
2021/10/10 10:44:45;;;;;;;4.23;2.87;;;21.10;66.40;;;;;;5072897;28;20441;-79
2021/10/10 10:47:14;;;;;;;3.17;2.03;;;20.50;68.50;;;;;;5037682;28;20575;-80
2021/10/10 10:50:00;;;;;;;2.33;2.07;;;20.00;66.80;;;;;;5073110;28;20928;-80
2021/10/10 10:52:29;;;;;;;3.27;2.40;;;19.30;67.80;;;;;;5073073;28;20468;-78
2021/10/10 10:54:57;;;;;;;2.03;1.40;;;18.70;68.90;;;;;;5073071;28;20436;-80
2021/10/10 10:57:34;;;;;;;2.93;2.27;;;17.80;72.50;;;;;;5073053;28;20436;-81
2021/10/10 11:00:09;;;;;;;2.70;1.70;;;17.20;74.40;;;;;;5072695;28;20934;-80
2021/10/10 11:02:59;;;;;;;2.40;1.67;;;16.70;75.10;;;;;;5072997;28;20435;-81
2021/10/10 11:05:32;;;;;;;5.50;2.90;;;16.30;75.00;;;;;;5072620;28;20461;-81
2021/10/10 11:07:59;;;;;;;3.97;2.33;;;15.80;76.40;;;;;;5073005;28;20433;-80
2021/10/10 11:10:26;;;;;;;1.10;0.87;;;15.50;79.80;;;;;;5072542;28;20476;-81
2021/10/10 11:12:56;;;;;;;3.47;1.67;;;15.50;77.50;;;;;;5072856;28;20433;-80
2021/10/10 11:15:25;;;;;;;2.53;1.63;;;15.30;78.90;;;;;;5072551;28;20426;-81
2021/10/10 11:17:56;;;;;;;0.80;0.77;;;15.20;78.60;;;;;;5072896;28;20437;-80
2021/10/10 11:20:23;;;;;;;2.17;1.47;;;15.20;77.50;;;;;;5072415;28;20437;-81
2021/10/10 11:22:50;;;;;;;2.27;1.53;;;15.10;79.00;;;;;;5072425;28;20472;-81
2021/10/10 11:25:17;;;;;;;3.27;0.93;;;15.00;78.70;;;;;;5072404;28;20800;-82
2021/10/10 11:27:47;;;;;;;1.83;1.17;;;15.00;78.30;;;;;;5072422;28;20934;-80
2021/10/10 11:30:14;;;;;;;2.13;1.20;;;14.80;77.10;;;;;;5074423;28;20437;-80
2021/10/10 11:32:52;;;;;;;1.60;1.23;;;14.60;78.30;;;;;;5076307;28;20453;-80
2021/10/10 11:35:26;;;;;;;1.13;0.90;;;14.40;79.50;;;;;;5076230;28;20452;-81
2021/10/10 11:38:04;;;;;;;1.87;1.27;;;14.40;79.20;;;;;;5076184;28;20478;-81
2021/10/10 11:40:31;;;;;;;1.60;0.70;;;14.40;79.60;;;;;;5076075;28;20472;-81
2021/10/10 11:42:58;;;;;;;2.53;1.27;;;14.30;79.60;;;;;;5075807;28;20448;-80
2021/10/10 11:45:26;;;;;;;1.50;1.40;;;14.30;78.90;;;;;;5075967;28;20441;-82
2021/10/10 11:47:55;;;;;;;1.13;1.03;;;14.20;80.40;;;;;;5075697;28;20896;-80
2021/10/10 11:50:22;;;;;;;1.63;1.10;;;14.10;79.60;;;;;;5075956;28;20779;-80
2021/10/10 11:52:55;;;;;;;3.37;1.00;;;14.10;81.60;;;;;;5075934;28;20460;-80
2021/10/10 11:55:25;;;;;;;1.47;0.97;;;14.00;81.60;;;;;;5076108;28;20437;-79
2021/10/10 11:57:56;;;;;;;1.90;0.90;;;14.00;79.40;;;;;;5075838;28;20502;-79
2021/10/10 12:00:26;;;;;;;2.10;1.20;;;13.90;80.50;;;;;;5075397;28;20445;-80
2021/10/10 12:02:54;;;;;;;2.10;2.00;;;13.80;83.00;;;;;;5075751;28;20456;-80
2021/10/10 12:05:23;;;;;;;2.83;2.17;;;13.70;83.90;;;;;;5075700;28;20528;-80
2021/10/10 12:07:52;;;;;;;2.87;1.40;;;13.70;83.70;;;;;;5075970;28;20436;-79
2021/10/10 12:10:20;;;;;;;1.10;1.00;;;13.50;83.40;;;;;;5075533;28;20535;-80
2021/10/10 12:12:47;;;;;;;3.20;1.47;;;13.50;83.90;;;;;;5075261;28;20941;-80
2021/10/10 12:15:18;;;;;;;2.37;1.57;;;13.40;83.10;;;;;;5075500;28;20453;-80
2021/10/10 12:17:47;;;;;;;1.60;0.93;;;13.20;84.20;;;;;;5075208;28;20905;-82
2021/10/10 12:20:25;;;;;;;1.43;0.80;;;13.20;85.70;;;;;;5075372;28;20499;-80
2021/10/10 12:22:54;;;;;;;2.07;1.30;;;13.20;86.20;;;;;;5074888;28;20575;-80
2021/10/10 12:25:22;;;;;;;2.90;0.90;;;13.30;84.60;;;;;;5075293;28;20444;-82
2021/10/10 12:27:56;;;;;;;1.90;1.20;;;13.20;86.40;;;;;;5074995;28;20465;-81
2021/10/10 12:30:26;;;;;;;1.80;1.00;;;13.20;85.30;;;;;;5074836;28;20444;-81
2021/10/10 12:32:53;;;;;;;0.80;0.80;;;13.10;86.40;;;;;;5075289;28;20469;-80
2021/10/10 12:35:21;;;;;;;1.50;1.23;;;13.10;86.20;;;;;;5075077;28;20421;-80
2021/10/10 12:37:51;;;;;;;3.83;1.40;;;13.00;87.90;;;;;;5074794;28;20432;-80
2021/10/10 12:40:29;;;;;;;2.07;1.00;;;12.90;89.80;;;;;;5074880;28;20506;-80
2021/10/10 12:42:58;;;;;;;4.23;1.27;;;12.90;90.10;;;;;;5074899;28;20452;-80
2021/10/10 12:45:31;;;;;;;7.00;0.90;;;12.90;90.10;;;;;;5074927;28;20453;-80
2021/10/10 12:48:05;;;;;;;0.70;0.70;;;13.00;87.90;;;;;;5074856;28;20473;-80
2021/10/10 12:50:48;;;;;;;1.60;0.77;;;13.00;88.50;;;;;;5074425;28;20972;-80
2021/10/10 12:53:24;;;;;;;0.60;0.60;;;13.00;88.60;;;;;;5074844;28;20433;-80
2021/10/10 12:56:11;;;;;;;2.40;1.03;;;12.80;90.20;;;;;;5074720;28;20420;-80
2021/10/10 12:58:54;;;;;;;2.03;1.13;;;12.70;90.50;;;;;;5074395;28;20923;-81